MyWebLog Booking Liste

 

Nyhetsmelding

Husk klubbkveld 5. mai kl 1900

Tirsdag 5. mai blir det en kort info om turplanlegging, vi orienterer om NM i presisjonsflyging som skjer 24. - 25. mai med kurs 22. og 23. mai(og der vi håper noen vil delta) og kommende Fly-in's. Kanskje får vi organisert at flere fly drar sammen. For mer info om NM og kurs i presisjon se nlf.no/motorfly/norgesmesterskap-og-treningssamling-presisjonsflyging-2015

Deretter spiser vi vafler og drikker kaffe.

Kopirett © 2015 Værnes Flyklubb. Alle rettigheter reservert.
Joomla! er fri programvare utgitt under GNU/GPL License.
 

METAR

ENVA 040250Z 11007KT CAVOK 02/M04 Q1009 RMK WIND 670FT 11013KT

TAF ENVA 0403/0503 12008KT 9999 FEW040 BKN080 TEMPO 0406/0420 16015G25KT